Elliott, Iowa
Current Conditions -  °F | °C
As of 3:35 AM on Friday 24 Oct 2014 (Local Time) from KRDK Reporting Station
Moderate Fog Moderate Fog  
Wind Chill: 57°   Ceiling: 200
Heat Index: 57°   Visibility: 0mi
Dew Point: 57°   Wind: 6mph
Humidity: 100%   Direction: 170°S
Pressure: 30.01"   Gusts: NA
Location:  41.15°N, 95.16°W
Report Text: KRDK 240835Z AUTO 17005KT M1/4SM FG OVC002 14/14 A3001 RMK AO2
Loading
Personal Weather Stations






























Interactive Weather Map
Tropical Storm Tracking
New forecast layout! Learn more

10-Day Weather Forecast

Advertisements
Track Severe Weather on mobile